Tuesday, January 15, 2019, 6:36 PM EST
Back to Local

KABE, Lehigh Valley International Airport

Location: Allentown, PA, United States Lat: 40.65
Local Time: 6:36 PM EST (23:36 GMT) Lon: -75.45
Time Zone: US/Eastern Elev: 393 ft

Show me the last for .
Show Decoded

2019-01-15 17:51 METAR KABE 152251Z 26004KT 10SM CLR M01/M09 A3013 RMK AO2 SLP208 T10111089 =
2019-01-15 16:51 METAR KABE 152151Z 29006KT 10SM CLR 01/M09 A3011 RMK AO2 SLP203 T00061089 =
2019-01-15 15:51 METAR KABE 152051Z 28008KT 10SM CLR 02/M09 A3012 RMK AO2 SLP203 T00221089 56007
                 =
2019-01-15 14:51 METAR KABE 151951Z 32006KT 10SM CLR 02/M09 A3012 RMK AO2 SLP203 T00221089 =
2019-01-15 13:51 METAR KABE 151851Z VRB06KT 10SM CLR 02/M09 A3012 RMK AO2 SLP203 T00171089 =
2019-01-15 12:51 METAR KABE 151751Z 35005KT 10SM CLR 01/M09 A3014 RMK AO2 SLP210 T00111094 10011
                 21044 58017 =
2019-01-15 11:51 METAR KABE 151651Z 33011KT 10SM CLR 01/M09 A3017 RMK AO2 SLP220 T00061089 =
2019-01-15 10:51 METAR KABE 151551Z 31008KT 10SM CLR 00/M09 A3019 RMK AO2 SLP229 T00001089 =
2019-01-15 09:51 METAR KABE 151451Z 33008KT 10SM CLR M02/M09 A3019 RMK AO2 SLP228 T10171094 53015
                 =
2019-01-15 08:51 METAR KABE 151351Z 31008KT 10SM CLR M03/M09 A3018 RMK AO2 SLP225 T10281094 =
2019-01-15 07:51 METAR KABE 151251Z 31009KT 10SM CLR M03/M11 A3015 RMK AO2 SLP217 T10331106 =
2019-01-15 06:51 METAR KABE 151151Z 30009KT 10SM CLR M04/M12 A3015 RMK AO2 SLP214 T10441117 11039
                 21083 53008 =
2019-01-15 05:51 METAR KABE 151051Z 25005KT 10SM CLR M07/M12 A3013 RMK AO2 SLP207 T10671122 =
2019-01-15 04:51 METAR KABE 150951Z 23004KT 10SM CLR M06/M12 A3012 RMK AO2 SLP205 T10611122 =
2019-01-15 03:51 METAR KABE 150851Z 27005KT 10SM CLR M06/M12 A3012 RMK AO2 SLP204 T10561122 58002
                 =
2019-01-15 02:51 METAR KABE 150751Z 26005KT 10SM CLR M04/M12 A3013 RMK AO2 SLP208 T10441122 =
2019-01-15 01:51 METAR KABE 150651Z AUTO 25005KT 10SM CLR M04/M12 A3013 RMK AO2 SLP206 T10391122
                 =
2019-01-15 00:51 METAR KABE 150551Z 25004KT 10SM CLR M04/M12 A3013 RMK AO2 SLP208 T10441122 11011
                 21056 58007 =
2019-01-14 23:51 METAR KABE 150451Z 27004KT 10SM CLR M02/M13 A3014 RMK AO2 SLP210 T10221128
                 400281094 =
2019-01-14 22:51 METAR KABE 150351Z 00000KT 10SM CLR M04/M13 A3015 RMK AO2 SLP215 T10391128 =
2019-01-14 21:51 METAR KABE 150251Z 30004KT 10SM CLR M02/M13 A3015 RMK AO2 SLP215 T10171133 55002
                 =
2019-01-14 20:51 METAR KABE 150151Z 25003KT 10SM CLR M03/M11 A3015 RMK AO2 SLP214 T10281111 =
2019-01-14 19:51 METAR KABE 150051Z 26004KT 10SM CLR M03/M09 A3015 RMK AO2 SLP214 T10331094 =
2019-01-14 18:51 METAR KABE 142351Z 24004KT 10SM CLR M02/M10 A3015 RMK AO2 SLP217 T10221100 10028
                 21028 56001 =

Support USWX by starting your Amazon purchase here.